Time;durP1;ratioP1;P1;durP2;ratioP2;P2;SDS_P1;SDS_P2;PMS_P1;PMS_P2;Temp;Humidity;BMP_temperature;BMP_pressure;BME280_temperature;BME280_humidity;BME280_pressure;Samples;Min_cycle;Max_cycle;Signal;HPM_P1;HPM_P2
2022/08/08 00:02:00;;;;;;;5.60;2.60;;;;;;;13.15;100.00;99526.80;103960;1285;61357;-70
2022/08/08 00:04:40;;;;;;;4.80;3.20;;;;;;;13.08;100.00;99522.86;103972;1285;75263;-71
2022/08/08 00:07:18;;;;;;;4.60;3.40;;;;;;;13.03;100.00;99509.42;104004;1285;69663;-70
2022/08/08 00:10:05;;;;;;;6.00;3.40;;;;;;;13.01;100.00;99503.90;103901;1285;73366;-71
2022/08/08 00:13:00;;;;;;;6.10;3.50;;;;;;;13.00;100.00;99499.33;104192;1280;61522;-71
2022/08/08 00:15:38;;;;;;;3.50;3.10;;;;;;;12.97;100.00;99503.59;104048;1284;61363;-72
2022/08/08 00:18:34;;;;;;;5.40;3.90;;;;;;;12.96;100.00;99501.55;104096;1284;76254;-70
2022/08/08 00:21:03;;;;;;;5.00;4.30;;;;;;;12.94;100.00;99501.68;103451;1288;69339;-70
2022/08/08 00:23:40;;;;;;;6.60;4.20;;;;;;;12.92;100.00;99499.54;103509;1288;73295;-70
2022/08/08 00:26:09;;;;;;;5.70;4.10;;;;;;;12.89;100.00;99499.02;104122;1283;61482;-70
2022/08/08 00:28:43;;;;;;;8.40;4.50;;;;;;;12.86;100.00;99496.67;104239;1283;62192;-70
2022/08/08 00:31:23;;;;;;;6.00;4.10;;;;;;;12.85;100.00;99490.19;104260;1283;76289;-69
2022/08/08 00:35:09;;;;;;;;;;;;;;;12.82;100.00;99495.73;104253;1283;69704;-71
2022/08/08 00:36:48;;;;;;;6.70;4.80;;;;;;;12.81;100.00;99496.02;104228;1283;71639;-71
2022/08/08 00:39:25;;;;;;;9.10;5.10;;;;;;;12.79;100.00;99492.56;104318;1283;61470;-71
2022/08/08 00:42:07;;;;;;;6.50;4.50;;;;;;;12.77;100.00;99490.36;104227;1283;61308;-71
2022/08/08 00:45:13;;;;;;;4.70;3.30;;;;;;;12.76;100.00;99487.40;104240;1283;75253;-71
2022/08/08 00:48:08;;;;;;;5.70;3.20;;;;;;;12.77;100.00;99487.14;104242;1283;69412;-70
2022/08/08 00:50:34;;;;;;;5.60;3.80;;;;;;;12.79;100.00;99483.10;104202;1283;73431;-70
2022/08/08 00:53:06;;;;;;;5.90;4.40;;;;;;;12.81;100.00;99488.52;104540;1274;61463;-70
2022/08/08 00:55:57;;;;;;;4.80;3.30;;;;;;;12.80;100.00;99488.91;104854;1277;61747;-71
2022/08/08 00:59:05;;;;;;;3.80;3.00;;;;;;;12.79;100.00;99496.29;105006;1271;75129;-71
2022/08/08 01:01:31;;;;;;;3.70;3.30;;;;;;;12.78;100.00;99495.70;104567;1280;70863;-71
2022/08/08 01:04:34;;;;;;;5.10;4.00;;;;;;;12.77;100.00;99493.92;104587;1278;61251;-71
2022/08/08 01:07:13;;;;;;;3.80;3.40;;;;;;;12.78;100.00;99488.88;104604;1277;61683;-71
2022/08/08 01:10:10;;;;;;;4.10;3.70;;;;;;;12.79;100.00;99491.48;104691;1278;62151;-70
2022/08/08 01:13:11;;;;;;;4.00;3.50;;;;;;;12.80;100.00;99493.58;104684;1280;75230;-71
2022/08/08 01:16:13;;;;;;;5.20;3.30;;;;;;;12.82;100.00;99493.41;104508;1278;68812;-71
2022/08/08 01:19:05;;;;;;;4.50;3.30;;;;;;;12.83;100.00;99492.98;104505;1280;74559;-71
2022/08/08 01:21:50;;;;;;;4.60;3.30;;;;;;;12.83;100.00;99494.22;104553;1278;61368;-71
2022/08/08 01:24:28;;;;;;;7.70;3.70;;;;;;;12.83;100.00;99493.71;104554;1280;61283;-70
2022/08/08 01:27:21;;;;;;;3.60;3.20;;;;;;;12.82;100.00;99492.16;104557;1278;76651;-70
2022/08/08 01:30:42;;;;;;;3.80;3.50;;;;;;;12.81;100.00;99490.26;104508;1280;68377;-71
2022/08/08 01:33:28;;;;;;;6.60;5.70;;;;;;;12.80;100.00;99487.14;103950;1284;73256;-71
2022/08/08 01:35:57;;;;;;;6.40;5.10;;;;;;;12.81;100.00;99484.77;103949;1284;61364;-70
2022/08/08 01:39:05;;;;;;;5.50;4.90;;;;;;;12.81;100.00;99486.38;104441;1280;62026;-70
2022/08/08 01:42:02;;;;;;;5.80;4.80;;;;;;;12.81;100.00;99482.98;104244;1283;75231;-71
2022/08/08 01:44:57;;;;;;;5.30;3.90;;;;;;;12.80;100.00;99481.40;104223;1283;69253;-70
2022/08/08 01:47:30;;;;;;;5.30;4.40;;;;;;;12.81;100.00;99479.77;103980;1283;74397;-71
2022/08/08 01:50:31;;;;;;;6.40;4.50;;;;;;;12.84;100.00;99480.61;104209;1283;61376;-69
2022/08/08 01:53:22;;;;;;;5.70;4.30;;;;;;;12.88;100.00;99479.95;104308;1283;61445;-70
2022/08/08 01:56:10;;;;;;;4.70;4.30;;;;;;;12.91;100.00;99479.20;104190;1283;74704;-70
2022/08/08 01:59:11;;;;;;;4.90;3.90;;;;;;;12.95;100.00;99480.02;104226;1283;69412;-70
2022/08/08 02:02:05;;;;;;;4.40;4.10;;;;;;;13.00;100.00;99475.94;104176;1282;73438;-70
2022/08/08 02:04:54;;;;;;;4.60;3.70;;;;;;;13.04;100.00;99474.44;104208;1283;61290;-70
2022/08/08 02:07:32;;;;;;;4.10;3.70;;;;;;;13.06;100.00;99473.77;104407;1277;61896;-70
2022/08/08 02:10:20;;;;;;;4.80;4.40;;;;;;;13.07;100.00;99469.75;104730;1277;76680;-71
2022/08/08 02:12:52;;;;;;;6.10;5.50;;;;;;;13.09;100.00;99469.63;104703;1277;70438;-70
2022/08/08 02:15:37;;;;;;;3.60;3.10;;;;;;;13.11;100.00;99467.31;104683;1277;74625;-72
2022/08/08 02:18:26;;;;;;;4.30;3.10;;;;;;;13.13;100.00;99471.44;104767;1271;61362;-71
2022/08/08 02:24:04;;;;;;;6.20;4.10;;;;;;;13.14;100.00;99473.23;105198;1271;76217;-70
2022/08/08 02:26:54;;;;;;;5.10;3.10;;;;;;;13.14;100.00;99476.04;105079;1271;69219;-70
2022/08/08 02:29:55;;;;;;;3.30;2.90;;;;;;;13.14;100.00;99474.04;104579;1277;74296;-70
2022/08/08 02:32:21;;;;;;;4.70;3.50;;;;;;;13.15;100.00;99474.71;104788;1277;61577;-69
2022/08/08 02:35:14;;;;;;;4.20;2.80;;;;;;;13.16;100.00;99479.13;104811;1277;61466;-70
2022/08/08 02:38:06;;;;;;;3.90;3.00;;;;;;;13.15;100.00;99481.31;104829;1277;74275;-71
2022/08/08 02:40:48;;;;;;;4.90;2.80;;;;;;;13.15;100.00;99483.06;104846;1277;69307;-70
2022/08/08 02:43:51;;;;;;;4.90;3.30;;;;;;;13.17;100.00;99484.35;104908;1277;72909;-70
2022/08/08 02:46:35;;;;;;;3.70;2.60;;;;;;;13.18;100.00;99488.94;104843;1277;61224;-70
2022/08/08 02:49:50;;;;;;;3.90;2.20;;;;;;;13.18;100.00;99487.17;104826;1277;61340;-70
2022/08/08 02:52:34;;;;;;;4.10;2.10;;;;;;;13.20;100.00;99487.96;104813;1277;75397;-69
2022/08/08 02:55:22;;;;;;;3.60;2.90;;;;;;;13.21;100.00;99488.05;104810;1277;69650;-70
2022/08/08 02:58:11;;;;;;;2.60;2.30;;;;;;;13.22;100.00;99489.77;104808;1276;73865;-70
2022/08/08 03:00:58;;;;;;;3.20;2.10;;;;;;;13.21;100.00;99493.04;104772;1277;61331;-70
2022/08/08 03:04:01;;;;;;;2.50;2.10;;;;;;;13.22;100.00;99495.66;104801;1277;61277;-71
2022/08/08 03:06:50;;;;;;;3.30;2.90;;;;;;;13.22;100.00;99494.75;104890;1272;76331;-69
2022/08/08 03:09:19;;;;;;;3.20;2.40;;;;;;;13.24;100.00;99493.71;105207;1271;69314;-70
2022/08/08 03:12:01;;;;;;;4.10;2.60;;;;;;;13.26;100.00;99496.46;105214;1271;73394;-70
2022/08/08 03:14:53;;;;;;;4.20;2.10;;;;;;;13.28;100.00;99499.72;104914;1271;61286;-71
2022/08/08 03:17:27;;;;;;;2.40;2.20;;;;;;;13.29;100.00;99501.95;105276;1271;61339;-71
2022/08/08 03:20:00;;;;;;;2.90;2.50;;;;;;;13.29;100.00;99501.60;105187;1271;75535;-70
2022/08/08 03:22:27;;;;;;;2.80;2.50;;;;;;;13.30;100.00;99504.23;105285;1271;69417;-71
2022/08/08 03:24:53;;;;;;;3.40;2.60;;;;;;;13.29;100.00;99503.21;105225;1271;61253;-70
2022/08/08 03:28:01;;;;;;;2.80;2.30;;;;;;;13.28;100.00;99508.33;105197;1271;61284;-71
2022/08/08 03:30:28;;;;;;;4.40;2.40;;;;;;;13.25;100.00;99509.56;104538;1278;61155;-70
2022/08/08 03:35:41;;;;;;;4.00;2.90;;;;;;;13.19;100.00;99511.56;104552;1280;69189;-70
2022/08/08 03:38:08;;;;;;;3.50;2.70;;;;;;;13.19;100.00;99509.42;104540;1278;61310;-71
2022/08/08 03:40:35;;;;;;;3.50;3.00;;;;;;;13.21;100.00;99504.11;104471;1280;61325;-70
2022/08/08 03:43:02;;;;;;;6.30;3.90;;;;;;;13.24;100.00;99501.95;104517;1278;61279;-70
2022/08/08 03:45:29;;;;;;;6.00;3.80;;;;;;;13.27;100.00;99505.54;104527;1277;76737;-70
2022/08/08 03:48:14;;;;;;;5.90;5.00;;;;;;;13.28;100.00;99504.20;104521;1278;70310;-70
2022/08/08 03:50:45;;;;;;;6.70;4.60;;;;;;;13.29;100.00;99507.87;104568;1278;72952;-70
2022/08/08 03:53:15;;;;;;;5.20;3.60;;;;;;;13.30;100.00;99506.91;104562;1278;61195;-70
2022/08/08 03:55:44;;;;;;;;;;;;;;;13.33;100.00;99512.38;104538;1278;61403;-71
2022/08/08 03:58:21;;;;;;;4.00;3.60;;;;;;;13.36;100.00;99517.90;104547;1278;75472;-70
2022/08/08 04:00:53;;;;;;;4.40;2.90;;;;;;;13.42;100.00;99522.67;104535;1278;69670;-71
2022/08/08 04:03:20;;;;;;;6.00;3.50;;;;;;;13.47;100.00;99518.21;104528;1277;74351;-71
2022/08/08 04:05:47;;;;;;;3.40;3.10;;;;;;;13.54;100.00;99518.04;104506;1277;62067;-70
2022/08/08 04:08:19;;;;;;;5.50;3.40;;;;;;;13.62;100.00;99519.45;105015;1271;61242;-72
2022/08/08 04:10:51;;;;;;;5.10;3.10;;;;;;;13.68;100.00;99522.96;105265;1271;76281;-73
2022/08/08 04:13:21;;;;;;;4.60;3.60;;;;;;;13.71;100.00;99518.27;105249;1271;68185;-73
2022/08/08 04:15:48;;;;;;;6.30;3.00;;;;;;;13.78;100.00;99521.21;105287;1271;72866;-74
2022/08/08 04:18:15;;;;;;;2.90;2.50;;;;;;;13.86;100.00;99517.21;105220;1271;61375;-72
2022/08/08 04:20:41;;;;;;;4.60;3.00;;;;;;;13.97;100.00;99519.63;105202;1271;61210;-72
2022/08/08 04:23:08;;;;;;;4.20;2.80;;;;;;;14.11;100.00;99523.57;105140;1271;61265;-72
2022/08/08 04:25:34;;;;;;;2.60;2.40;;;;;;;14.24;100.00;99528.03;105107;1271;61380;-71
2022/08/08 04:28:01;;;;;;;2.80;2.30;;;;;;;14.37;100.00;99526.01;105083;1272;61294;-72
2022/08/08 04:30:27;;;;;;;2.90;2.50;;;;;;;14.49;100.00;99526.16;105244;1271;61374;-73
2022/08/08 04:32:54;;;;;;;3.30;2.30;;;;;;;14.59;100.00;99523.82;104908;1274;61116;-71
2022/08/08 04:35:22;;;;;;;6.00;2.60;;;;;;;14.68;100.00;99517.61;105288;1270;75437;-72
2022/08/08 04:37:50;;;;;;;3.80;2.40;;;;;;;14.76;100.00;99516.30;105264;1271;69467;-73
2022/08/08 04:40:17;;;;;;;3.30;2.30;;;;;;;14.84;100.00;99520.16;105233;1271;74248;-73
2022/08/08 04:42:44;;;;;;;2.30;1.90;;;;;;;14.91;100.00;99521.08;105360;1271;61394;-73
2022/08/08 04:45:11;;;;;;;2.50;1.60;;;;;;;15.00;100.00;99523.82;105240;1271;61265;-73
2022/08/08 04:47:38;;;;;;;2.20;1.50;;;;;;;15.07;100.00;99525.03;105255;1269;74433;-73
2022/08/08 04:50:05;;;;;;;3.70;1.90;;;;;;;15.15;100.00;99524.02;105245;1271;69341;-73
2022/08/08 04:52:32;;;;;;;2.20;1.60;;;;;;;15.24;100.00;99528.54;105070;1272;73418;-73
2022/08/08 04:54:58;;;;;;;1.50;1.10;;;;;;;15.35;100.00;99533.92;105190;1271;61319;-72
2022/08/08 04:57:25;;;;;;;4.50;1.90;;;;;;;15.45;100.00;99534.11;105229;1270;61408;-71
2022/08/08 04:59:52;;;;;;;4.00;1.90;;;;;;;15.53;100.00;99536.09;105212;1271;76262;-71
2022/08/08 05:02:18;;;;;;;4.30;1.60;;;;;;;15.62;100.00;99534.36;105248;1271;69128;-71
2022/08/08 05:04:45;;;;;;;2.30;1.40;;;;;;;15.71;100.00;99536.47;105228;1271;61182;-72
2022/08/08 05:07:11;;;;;;;4.20;1.60;;;;;;;15.83;100.00;99541.54;105185;1271;61406;-72
2022/08/08 05:09:38;;;;;;;3.00;1.60;;;;;;;15.98;100.00;99538.54;105064;1271;61295;-72
2022/08/08 05:12:05;;;;;;;2.60;1.50;;;;;;;16.19;100.00;99535.02;105221;1271;61378;-72
2022/08/08 05:14:31;;;;;;;2.70;1.40;;;;;;;16.29;100.00;99538.13;104965;1274;69211;-73
2022/08/08 05:16:58;;;;;;;3.60;1.60;;;;;;;16.44;100.00;99541.22;105234;1271;74270;-73
2022/08/08 05:19:24;;;;;;;2.50;1.30;;;;;;;16.67;100.00;99544.70;105190;1271;61308;-73
2022/08/08 05:21:54;;;;;;;2.20;1.30;;;;;;;17.08;100.00;99539.62;105244;1271;61252;-72
2022/08/08 05:24:21;;;;;;;3.50;1.60;;;;;;;18.18;100.00;99536.30;105231;1271;75571;-72
2022/08/08 05:26:47;;;;;;;1.50;1.10;;;;;;;19.31;100.00;99531.13;105224;1271;68602;-80
2022/08/08 05:29:14;;;;;;;4.30;1.20;;;;;;;20.28;100.00;99528.98;105186;1271;61270;-71
2022/08/08 05:31:40;;;;;;;3.00;1.20;;;;;;;21.12;100.00;99527.65;105212;1271;61231;-71
2022/08/08 05:34:19;;;;;;;3.40;1.20;;;;;;;21.90;100.00;99530.38;105217;1271;61202;-71
2022/08/08 05:36:48;;;;;;;2.50;1.40;;;;;;;22.52;100.00;99532.80;104980;1271;75176;-71
2022/08/08 05:39:19;;;;;;;2.50;1.40;;;;;;;23.02;100.00;99531.52;105302;1271;70552;-70
2022/08/08 05:41:49;;;;;;;2.70;1.20;;;;;;;23.30;100.00;99529.89;105192;1271;74207;-70
2022/08/08 05:44:39;;;;;;;1.60;1.20;;;;;;;22.97;100.00;99536.14;105219;1271;61380;-70
2022/08/08 05:47:05;;;;;;;2.30;1.10;;;;;;;22.31;100.00;99538.72;105237;1271;61278;-71
2022/08/08 05:49:34;;;;;;;3.10;1.10;;;;;;;21.94;100.00;99543.20;105254;1271;61386;-71
2022/08/08 05:52:02;;;;;;;5.20;1.20;;;;;;;21.73;100.00;99540.30;105260;1271;69206;-71
2022/08/08 05:54:28;;;;;;;2.20;1.20;;;;;;;21.14;100.00;99544.20;105216;1271;72913;-71
2022/08/08 05:56:55;;;;;;;4.70;1.00;;;;;;;20.74;100.00;99546.64;105260;1271;61332;-71
2022/08/08 05:59:24;;;;;;;5.50;1.30;;;;;;;20.76;100.00;99549.73;105222;1271;62101;-71
2022/08/08 06:01:55;;;;;;;4.90;1.50;;;;;;;21.26;100.00;99542.81;105322;1271;75126;-71
2022/08/08 06:04:27;;;;;;;2.40;1.10;;;;;;;21.61;100.00;99549.55;105220;1271;69237;-71
2022/08/08 06:06:56;;;;;;;4.80;1.20;;;;;;;22.13;99.93;99551.30;105178;1271;74294;-69
2022/08/08 06:09:31;;;;;;;3.70;1.50;;;;;;;21.90;100.00;99552.64;104985;1274;61408;-70
2022/08/08 06:12:03;;;;;;;2.50;1.20;;;;;;;21.51;100.00;99551.25;105230;1270;61336;-70
2022/08/08 06:14:30;;;;;;;5.10;1.70;;;;;;;21.20;100.00;99551.03;105299;1270;74256;-70
2022/08/08 06:17:00;;;;;;;5.70;2.60;;;;;;;20.98;100.00;99556.16;105207;1271;69582;-70
2022/08/08 06:19:27;;;;;;;;;;;;;;;20.86;100.00;99558.05;105019;1272;73430;-71
2022/08/08 06:21:54;;;;;;;2.30;1.00;;;;;;;20.72;100.00;99566.20;105242;1271;61489;-70
2022/08/08 06:24:21;;;;;;;4.80;1.10;;;;;;;20.88;100.00;99561.86;105221;1271;61285;-71
2022/08/08 06:27:01;;;;;;;1.90;1.40;;;;;;;21.36;100.00;99560.81;105212;1271;75695;-70
2022/08/08 06:29:38;;;;;;;4.00;1.20;;;;;;;21.63;100.00;99557.66;105231;1271;69843;-71
2022/08/08 06:32:08;;;;;;;3.00;1.10;;;;;;;21.74;100.00;99562.34;105230;1271;72639;-71
2022/08/08 06:34:38;;;;;;;2.20;1.10;;;;;;;21.78;99.92;99559.83;105405;1271;61372;-71
2022/08/08 06:37:11;;;;;;;2.10;1.20;;;;;;;21.66;99.62;99562.74;105229;1271;61325;-71
2022/08/08 06:39:49;;;;;;;4.90;1.20;;;;;;;21.37;98.52;99559.44;105225;1271;75239;-70
2022/08/08 06:42:17;;;;;;;3.30;1.60;;;;;;;21.15;99.23;99560.20;105238;1271;69131;-70
2022/08/08 06:44:49;;;;;;;3.60;1.30;;;;;;;21.14;100.00;99564.09;105187;1270;73287;-71
2022/08/08 06:47:16;;;;;;;2.00;1.30;;;;;;;20.97;100.00;99565.27;105225;1271;61402;-70
2022/08/08 06:49:46;;;;;;;3.70;1.50;;;;;;;20.81;100.00;99573.23;104941;1274;61552;-70
2022/08/08 06:52:25;;;;;;;2.40;1.40;;;;;;;20.60;100.00;99576.92;105070;1271;75088;-71
2022/08/08 06:54:51;;;;;;;2.60;1.60;;;;;;;20.52;100.00;99576.09;105305;1271;68541;-71
2022/08/08 06:57:18;;;;;;;4.60;1.70;;;;;;;20.47;100.00;99574.44;105233;1271;73222;-71
2022/08/08 06:59:44;;;;;;;2.40;1.60;;;;;;;20.46;100.00;99573.10;105200;1271;61397;-71
2022/08/08 07:02:21;;;;;;;4.90;1.80;;;;;;;20.45;100.00;99569.56;105215;1271;61260;-71
2022/08/08 07:04:59;;;;;;;2.50;1.40;;;;;;;20.49;100.00;99569.52;104963;1274;73815;-71
2022/08/08 07:07:51;;;;;;;3.90;1.30;;;;;;;20.56;100.00;99572.98;105243;1271;70900;-70
2022/08/08 07:10:23;;;;;;;4.50;1.60;;;;;;;20.76;100.00;99574.81;105162;1271;72042;-70
2022/08/08 07:13:04;;;;;;;2.10;1.50;;;;;;;21.06;100.00;99566.38;105406;1271;61294;-71
2022/08/08 07:15:51;;;;;;;3.00;1.30;;;;;;;21.09;100.00;99568.45;105233;1271;62324;-70
2022/08/08 07:18:45;;;;;;;4.40;1.40;;;;;;;21.10;100.00;99567.75;105203;1271;75419;-70
2022/08/08 07:21:16;;;;;;;1.50;1.40;;;;;;;21.17;100.00;99570.11;105220;1271;69772;-71
2022/08/08 07:24:07;;;;;;;2.70;1.30;;;;;;;21.22;100.00;99571.75;105244;1270;73386;-71
2022/08/08 07:26:36;;;;;;;2.50;1.10;;;;;;;21.24;100.00;99575.70;104703;1278;61519;-70
2022/08/08 07:29:04;;;;;;;2.20;1.30;;;;;;;21.15;100.00;99573.55;104575;1280;62268;-71
2022/08/08 07:31:30;;;;;;;3.30;1.30;;;;;;;21.11;100.00;99577.09;104710;1277;75840;-71
2022/08/08 07:33:58;;;;;;;3.40;1.20;;;;;;;21.08;100.00;99575.24;104468;1281;69265;-71
2022/08/08 07:36:25;;;;;;;3.20;1.50;;;;;;;21.05;100.00;99579.86;104705;1277;73193;-71
2022/08/08 07:38:52;;;;;;;5.00;1.60;;;;;;;20.97;99.90;99584.46;104729;1277;61422;-71
2022/08/08 07:41:20;;;;;;;3.20;1.30;;;;;;;20.81;100.00;99586.58;104726;1277;61394;-71
2022/08/08 07:43:48;;;;;;;3.50;1.40;;;;;;;20.90;100.00;99584.09;104723;1278;74203;-70
2022/08/08 07:46:15;;;;;;;3.80;1.40;;;;;;;21.10;100.00;99588.04;104764;1277;69340;-71
2022/08/08 07:48:41;;;;;;;2.60;1.40;;;;;;;21.23;100.00;99585.91;104696;1277;61378;-70
2022/08/08 07:51:08;;;;;;;2.80;1.60;;;;;;;21.34;100.00;99586.17;104749;1278;61394;-71
2022/08/08 07:53:48;;;;;;;6.40;2.50;;;;;;;21.42;100.00;99585.19;104760;1278;61292;-71
2022/08/08 07:56:19;;;;;;;1.80;1.30;;;;;;;21.63;100.00;99585.65;104739;1277;75263;-72
2022/08/08 07:58:49;;;;;;;2.90;1.80;;;;;;;21.75;100.00;99593.29;104883;1277;70147;-71
2022/08/08 08:01:21;;;;;;;4.30;1.50;;;;;;;21.89;100.00;99597.48;104742;1277;72696;-89
2022/08/08 08:03:55;;;;;;;3.80;2.00;;;;;;;22.01;100.00;99594.80;106021;1271;61200;-78
2022/08/08 08:06:21;;;;;;;3.50;2.10;;;;;;;22.15;100.00;99595.65;105410;1273;61294;-77
2022/08/08 08:08:54;;;;;;;4.90;1.80;;;;;;;22.33;99.54;99598.63;105337;1271;75793;-79
2022/08/08 08:11:22;;;;;;;2.50;1.50;;;;;;;22.36;97.88;99596.32;105386;1271;69318;-78
2022/08/08 08:14:05;;;;;;;2.40;1.40;;;;;;;22.38;98.00;99591.09;105567;1271;72289;-76
2022/08/08 08:16:34;;;;;;;3.30;1.30;;;;;;;22.40;98.21;99594.97;105207;1268;61327;-76
2022/08/08 08:19:04;;;;;;;2.20;1.10;;;;;;;22.51;98.38;99594.88;105753;1268;61295;-81
2022/08/08 08:21:42;;;;;;;2.40;1.60;;;;;;;22.65;98.13;99602.79;105714;1271;76171;-80
2022/08/08 08:24:09;;;;;;;3.50;1.70;;;;;;;22.70;96.81;99600.08;105743;1271;69248;-80
2022/08/08 08:26:35;;;;;;;2.90;1.40;;;;;;;22.67;96.07;99597.18;105643;1269;61180;-82
2022/08/08 08:29:03;;;;;;;3.50;1.60;;;;;;;22.75;96.05;99595.05;105684;1270;61273;-81
2022/08/08 08:31:30;;;;;;;4.20;1.30;;;;;;;22.87;95.68;99596.05;105910;1271;62829;-79
2022/08/08 08:33:57;;;;;;;4.50;1.70;;;;;;;22.93;94.69;99596.17;105486;1273;76393;-80
2022/08/08 08:36:25;;;;;;;2.00;1.10;;;;;;;23.03;94.61;99600.38;105613;1271;69435;-78
2022/08/08 08:38:51;;;;;;;4.00;1.30;;;;;;;23.09;93.69;99600.47;105319;1271;72188;-76
2022/08/08 08:41:18;;;;;;;2.90;1.40;;;;;;;23.08;93.54;99599.40;105311;1271;61355;-79
2022/08/08 08:43:46;;;;;;;2.10;1.30;;;;;;;23.06;92.35;99601.13;105770;1271;61157;-86
2022/08/08 08:46:13;;;;;;;2.50;1.80;;;;;;;23.15;92.86;99604.05;105704;1271;75200;-82
2022/08/08 08:48:42;;;;;;;2.60;1.10;;;;;;;23.36;92.91;99604.66;105767;1271;70252;-82
2022/08/08 08:51:13;;;;;;;2.80;1.30;;;;;;;23.58;91.83;99604.98;105826;1271;73822;-82
2022/08/08 08:53:54;;;;;;;2.40;1.30;;;;;;;23.57;90.91;99603.77;105734;1271;61243;-85
2022/08/08 08:56:24;;;;;;;5.80;1.80;;;;;;;23.71;91.48;99607.70;105778;1271;62361;-82
2022/08/08 08:58:51;;;;;;;6.00;4.10;;;;;;;23.91;91.92;99605.08;105719;1270;76187;-82
2022/08/08 09:01:22;;;;;;;4.10;3.40;;;;;;;24.25;91.63;99602.34;105523;1271;70586;-81
2022/08/08 09:03:49;;;;;;;4.40;2.60;;;;;;;24.58;87.97;99602.13;105829;1271;72967;-84
2022/08/08 09:06:37;;;;;;;4.30;2.00;;;;;;;24.79;86.04;99600.79;105705;1269;61390;-83
2022/08/08 09:09:08;;;;;;;4.50;1.90;;;;;;;24.88;80.92;99595.02;105763;1269;61485;-80
2022/08/08 09:11:35;;;;;;;3.30;1.80;;;;;;;24.95;80.26;99594.35;105840;1271;75723;-85
2022/08/08 09:14:03;;;;;;;3.90;2.00;;;;;;;25.11;80.72;99594.61;105912;1268;70388;-81
2022/08/08 09:16:30;;;;;;;4.90;1.90;;;;;;;25.29;79.53;99594.94;105453;1274;73285;-81
2022/08/08 09:18:57;;;;;;;1.40;0.90;;;;;;;25.35;78.01;99598.16;105703;1269;61170;-82
2022/08/08 09:21:23;;;;;;;2.80;1.00;;;;;;;25.36;69.81;99592.39;106196;1271;61256;-82
2022/08/08 09:23:53;;;;;;;1.40;1.20;;;;;;;25.33;66.79;99598.88;105199;1271;75314;-69
2022/08/08 09:26:32;;;;;;;2.90;1.10;;;;;;;25.27;64.68;99594.79;105239;1271;70449;-69
2022/08/08 09:29:01;;;;;;;4.00;2.00;;;;;;;25.56;64.41;99594.06;105305;1271;72697;-70
2022/08/08 09:31:53;;;;;;;3.10;1.20;;;;;;;25.77;63.17;99594.82;105235;1270;61300;-71
2022/08/08 09:34:23;;;;;;;2.60;1.00;;;;;;;25.75;58.54;99593.71;105194;1271;61345;-70
2022/08/08 09:37:00;;;;;;;4.00;1.50;;;;;;;25.62;58.34;99592.20;105275;1271;75638;-70
2022/08/08 09:39:34;;;;;;;4.30;1.10;;;;;;;25.72;58.25;99590.27;105274;1271;70638;-70
2022/08/08 09:42:03;;;;;;;5.80;2.30;;;;;;;25.85;58.30;99593.33;105224;1270;72025;-69
2022/08/08 09:44:58;;;;;;;7.20;1.50;;;;;;;25.85;57.34;99598.83;105017;1274;61268;-70
2022/08/08 09:47:27;;;;;;;2.50;1.10;;;;;;;25.85;58.56;99596.64;104214;1271;1367639;-69
2022/08/08 09:49:57;;;;;;;3.40;1.60;;;;;;;25.89;57.62;99592.17;105024;1271;74042;-69
2022/08/08 09:52:30;;;;;;;4.30;1.60;;;;;;;25.93;56.96;99592.18;105269;1270;70153;-70
2022/08/08 09:54:57;;;;;;;6.30;1.30;;;;;;;25.89;54.16;99593.27;105285;1270;72566;-69
2022/08/08 09:57:35;;;;;;;2.50;1.50;;;;;;;25.79;54.18;99590.02;105165;1271;61301;-69
2022/08/08 10:00:05;;;;;;;2.70;1.30;;;;;;;25.93;54.65;99587.84;105221;1270;62133;-69
2022/08/08 10:02:37;;;;;;;3.20;0.90;;;;;;;26.12;54.98;99582.05;105287;1270;76313;-69
2022/08/08 10:05:07;;;;;;;3.90;1.00;;;;;;;26.22;53.70;99580.55;105414;1271;67600;-69
2022/08/08 10:07:34;;;;;;;3.10;0.80;;;;;;;26.11;52.82;99584.16;105224;1271;72339;-69
2022/08/08 10:10:01;;;;;;;3.00;0.50;;;;;;;25.99;50.92;99586.73;105228;1271;61397;-70
2022/08/08 10:12:39;;;;;;;2.10;0.90;;;;;;;25.84;48.16;99586.46;105262;1269;61275;-69
2022/08/08 10:15:07;;;;;;;2.70;1.00;;;;;;;25.77;48.56;99577.52;105246;1270;76158;-70
2022/08/08 10:17:44;;;;;;;2.00;1.00;;;;;;;25.85;46.68;99580.77;105249;1271;69277;-69
2022/08/08 10:20:11;;;;;;;1.70;0.60;;;;;;;25.77;47.06;99574.77;104979;1272;70996;-68
2022/08/08 10:22:45;;;;;;;1.30;0.80;;;;;;;25.75;46.44;99573.40;105231;1271;61371;-69
2022/08/08 10:25:18;;;;;;;1.50;0.90;;;;;;;25.72;46.33;99576.81;105240;1268;61257;-69
2022/08/08 10:27:50;;;;;;;4.00;1.00;;;;;;;25.73;46.08;99576.52;105019;1271;75389;-71
2022/08/08 10:30:17;;;;;;;1.90;1.30;;;;;;;25.90;46.48;99569.58;105314;1271;69287;-68
2022/08/08 10:32:52;;;;;;;3.40;1.00;;;;;;;26.10;46.01;99564.62;105294;1269;73925;-70
2022/08/08 10:35:22;;;;;;;2.40;1.10;;;;;;;26.27;46.08;99564.51;105199;1271;61389;-69
2022/08/08 10:37:56;;;;;;;4.70;1.30;;;;;;;26.49;45.16;99564.16;105290;1271;61289;-69
2022/08/08 10:40:25;;;;;;;1.30;0.90;;;;;;;26.55;44.92;99568.46;105255;1271;76274;-70
2022/08/08 10:42:58;;;;;;;3.00;0.90;;;;;;;26.60;44.96;99573.77;105405;1271;68455;-70
2022/08/08 10:45:25;;;;;;;3.10;1.20;;;;;;;26.69;44.23;99578.23;105335;1268;73259;-68
2022/08/08 10:47:58;;;;;;;6.70;1.10;;;;;;;26.73;43.88;99574.98;105282;1271;61329;-69
2022/08/08 10:50:34;;;;;;;3.60;0.90;;;;;;;26.91;43.55;99577.45;105403;1271;61247;-69
2022/08/08 10:53:04;;;;;;;2.70;0.90;;;;;;;27.13;44.07;99576.17;105096;1271;76260;-70
2022/08/08 10:55:31;;;;;;;2.40;0.90;;;;;;;27.33;43.49;99575.48;105301;1271;70341;-69
2022/08/08 10:58:04;;;;;;;6.00;1.30;;;;;;;27.49;43.64;99571.49;105064;1272;74786;-69
2022/08/08 11:00:32;;;;;;;2.50;1.20;;;;;;;27.69;43.14;99568.38;105284;1270;61357;-70
2022/08/08 11:03:12;;;;;;;1.20;0.70;;;;;;;27.87;43.28;99566.96;105233;1271;62302;-69
2022/08/08 11:05:50;;;;;;;3.00;0.80;;;;;;;27.94;42.05;99566.20;105290;1270;75230;-70
2022/08/08 11:08:27;;;;;;;4.40;1.50;;;;;;;27.82;42.03;99565.87;105235;1271;69191;-69
2022/08/08 11:11:08;;;;;;;2.00;0.70;;;;;;;27.76;42.17;99565.69;105254;1271;73179;-68
2022/08/08 11:13:43;;;;;;;2.20;1.20;;;;;;;27.81;42.53;99567.55;105250;1268;61307;-70
2022/08/08 11:16:23;;;;;;;3.00;1.30;;;;;;;27.85;41.70;99564.59;105239;1269;61233;-69
2022/08/08 11:18:50;;;;;;;3.20;1.10;;;;;;;27.96;42.75;99564.06;105254;1268;75233;-69
2022/08/08 11:21:17;;;;;;;1.70;0.90;;;;;;;28.11;41.96;99563.98;105287;1268;69235;-69
2022/08/08 11:23:46;;;;;;;4.10;1.80;;;;;;;28.07;42.17;99562.77;105260;1268;73496;-69
2022/08/08 11:26:19;;;;;;;2.10;0.90;;;;;;;28.16;41.54;99557.32;105256;1268;62711;-69
2022/08/08 11:28:45;;;;;;;2.70;1.10;;;;;;;28.17;40.98;99558.62;105328;1268;61794;-70
2022/08/08 11:31:18;;;;;;;3.00;0.90;;;;;;;28.03;40.86;99557.03;105230;1268;74734;-69
2022/08/08 11:33:48;;;;;;;4.20;1.80;;;;;;;27.83;40.75;99557.45;105115;1271;70364;-69
2022/08/08 11:36:15;;;;;;;3.60;1.00;;;;;;;27.60;40.61;99557.98;105204;1268;74324;-69
2022/08/08 11:38:45;;;;;;;2.80;0.90;;;;;;;27.31;40.13;99560.90;105228;1268;61195;-69
2022/08/08 11:41:12;;;;;;;8.00;1.10;;;;;;;27.20;39.81;99562.69;105241;1268;61500;-69
2022/08/08 11:43:40;;;;;;;1.60;0.90;;;;;;;27.07;39.94;99550.08;105207;1268;76164;-70
2022/08/08 11:46:07;;;;;;;2.00;0.80;;;;;;;27.15;39.93;99546.67;105289;1268;68532;-68
2022/08/08 11:48:36;;;;;;;1.10;0.90;;;;;;;27.11;39.73;99543.85;105211;1268;74560;-70
2022/08/08 11:51:04;;;;;;;1.10;0.80;;;;;;;27.07;39.53;99539.31;105328;1268;61316;-70
2022/08/08 11:53:31;;;;;;;2.70;1.00;;;;;;;27.05;39.67;99541.27;105221;1269;61253;-70
2022/08/08 11:55:57;;;;;;;3.70;0.80;;;;;;;27.14;39.69;99544.95;105209;1268;76493;-71
2022/08/08 11:58:34;;;;;;;3.40;1.60;;;;;;;27.28;39.76;99538.02;105045;1271;67965;-70
2022/08/08 12:01:04;;;;;;;2.90;0.90;;;;;;;27.44;39.60;99531.35;105249;1268;73439;-71
2022/08/08 12:03:35;;;;;;;2.70;1.40;;;;;;;27.42;39.06;99538.30;105364;1271;61396;-70